Debrecen, Hungary
Current Conditions -  °F | °C
As of 2:01 AM on Thursday 23 Oct 2014 (Local Time) from LHDC Reporting Station
NA  
Wind Chill: 42°   Ceiling: NA
Heat Index: 45°   Visibility: NA
Dew Point: 45°   Wind: 5mph
Humidity: 100%   Direction: 130°SE
Pressure: 29.65"   Gusts: NA
Location:  47.54°N, 21.63°E
Report Text: LHDC 230001Z AUTO 13004KT 07/07 Q1004
Loading
Personal Weather Stations






























Interactive Weather Map
Tropical Storm Tracking
New forecast layout! Learn more

10-Day Weather Forecast

Advertisements
Track Severe Weather on mobile